createdAt,value
2018-06-15T00:03:11.929Z,0.00
2018-06-15T00:04:12.098Z,0.00
2018-06-15T00:05:12.271Z,0.00
2018-06-15T00:06:12.435Z,0.00
2018-06-15T00:07:12.599Z,0.00
2018-06-15T00:08:12.766Z,0.00
2018-06-15T00:09:12.935Z,0.00
2018-06-15T00:10:13.116Z,0.00
2018-06-15T00:11:13.277Z,0.00
2018-06-15T00:12:13.446Z,0.00
2018-06-15T00:14:55.729Z,0.00
2018-06-15T00:15:55.903Z,0.00
2018-06-15T00:16:56.071Z,0.00
2018-06-15T00:17:56.236Z,0.00
2018-06-15T00:18:56.440Z,0.00
2018-06-15T00:19:56.622Z,0.00
2018-06-15T00:20:56.773Z,0.00
2018-06-15T00:21:56.941Z,0.00
2018-06-15T00:22:57.110Z,0.00
2018-06-15T00:23:57.278Z,0.00
2018-06-15T00:24:57.447Z,0.00
2018-06-15T00:25:57.612Z,0.00
2018-06-15T00:26:57.798Z,0.00
2018-06-15T00:27:57.965Z,0.00
2018-06-15T00:28:58.128Z,0.00
2018-06-15T00:31:40.702Z,0.00
2018-06-15T00:32:40.869Z,0.00
2018-06-15T00:33:41.038Z,0.00
2018-06-15T00:34:41.202Z,0.00
2018-06-15T00:35:41.370Z,0.00
2018-06-15T00:36:41.539Z,0.00
2018-06-15T00:37:41.712Z,0.00
2018-06-15T00:38:41.875Z,0.00
2018-06-15T00:39:42.040Z,0.00
2018-06-15T00:40:42.211Z,0.00
2018-06-15T00:41:42.377Z,0.00
2018-06-15T00:42:42.544Z,0.00
2018-06-15T00:43:42.801Z,0.00
2018-06-15T00:44:42.920Z,0.00
2018-06-15T00:45:43.085Z,0.00
2018-06-15T00:48:25.658Z,0.00
2018-06-15T00:49:25.820Z,0.00
2018-06-15T00:50:25.983Z,0.00
2018-06-15T00:51:26.152Z,0.00
2018-06-15T00:52:26.324Z,0.00
2018-06-15T00:53:26.484Z,0.00
2018-06-15T00:54:26.652Z,0.00
2018-06-15T00:55:26.818Z,0.00
2018-06-15T00:56:26.985Z,0.00
2018-06-15T00:57:27.164Z,0.00
2018-06-15T00:58:27.314Z,0.00
2018-06-15T00:59:27.481Z,0.00
2018-06-15T01:00:27.660Z,0.00
2018-06-15T01:01:27.816Z,0.00
2018-06-15T01:02:27.983Z,0.00
2018-06-15T01:05:10.234Z,0.00
2018-06-15T01:06:10.398Z,0.00
2018-06-15T01:07:10.563Z,0.00
2018-06-15T01:08:10.737Z,0.00
2018-06-15T01:09:10.901Z,0.00
2018-06-15T01:10:11.076Z,0.00
2018-06-15T01:11:11.241Z,0.00
2018-06-15T01:12:11.427Z,0.00
2018-06-15T01:13:11.583Z,0.00
2018-06-15T01:14:11.755Z,0.00
2018-06-15T01:16:54.323Z,0.00
2018-06-15T01:17:54.489Z,0.00
2018-06-15T01:18:54.667Z,0.00
2018-06-15T01:19:54.839Z,0.00
2018-06-15T01:20:55.001Z,0.00
2018-06-15T01:21:55.197Z,0.00
2018-06-15T01:22:55.354Z,0.00
2018-06-15T01:23:55.521Z,0.00
2018-06-15T01:24:55.679Z,0.00
2018-06-15T01:25:55.890Z,0.00
2018-06-15T01:28:38.170Z,0.00
2018-06-15T01:29:38.331Z,0.00
2018-06-15T01:30:38.494Z,0.00
2018-06-15T01:31:38.666Z,0.00
2018-06-15T01:32:38.818Z,0.00
2018-06-15T01:33:38.977Z,0.00
2018-06-15T01:34:39.177Z,0.00
2018-06-15T01:35:39.289Z,0.00
2018-06-15T01:36:39.488Z,0.00
2018-06-15T01:37:39.551Z,0.00
2018-06-15T01:40:22.098Z,0.00
2018-06-15T01:41:22.266Z,0.00
2018-06-15T01:42:23.355Z,0.00
2018-06-15T01:43:22.643Z,0.00
2018-06-15T01:44:22.816Z,0.00
2018-06-15T01:45:22.974Z,0.00
2018-06-15T01:46:23.148Z,0.00
2018-06-15T01:47:23.308Z,0.00
2018-06-15T01:48:23.612Z,0.00
2018-06-15T01:49:23.641Z,0.00
2018-06-15T01:50:23.804Z,0.00
2018-06-15T01:51:24.005Z,0.00
2018-06-15T01:52:24.212Z,0.00
2018-06-15T01:53:24.274Z,0.00
2018-06-15T01:54:24.460Z,0.00
2018-06-15T01:57:06.736Z,0.00
2018-06-15T01:58:06.900Z,0.00
2018-06-15T01:59:07.068Z,0.00
2018-06-15T02:00:07.270Z,0.00
2018-06-15T02:01:07.473Z,0.00
2018-06-15T02:02:07.605Z,0.00
2018-06-15T02:03:07.772Z,0.00
2018-06-15T02:04:07.939Z,0.00
2018-06-15T02:05:08.113Z,0.00
2018-06-15T02:06:08.270Z,0.00
2018-06-15T02:07:08.440Z,0.00
2018-06-15T02:08:08.596Z,0.00
2018-06-15T02:09:08.763Z,0.00
2018-06-15T02:10:08.919Z,0.00
2018-06-15T02:11:09.076Z,0.00
2018-06-15T02:13:51.676Z,0.00
2018-06-15T02:14:51.817Z,0.00
2018-06-15T02:15:51.980Z,0.00
2018-06-15T02:16:52.150Z,0.00
2018-06-15T02:17:52.320Z,0.00
2018-06-15T02:18:52.480Z,0.00
2018-06-15T02:19:52.648Z,0.00
2018-06-15T02:20:52.819Z,0.00
2018-06-15T02:21:52.990Z,0.00
2018-06-15T02:22:53.150Z,0.00
2018-06-15T02:23:53.330Z,0.00
2018-06-15T02:24:53.483Z,0.00
2018-06-15T02:25:53.650Z,0.00
2018-06-15T02:26:53.821Z,0.00
2018-06-15T02:27:53.986Z,0.00
2018-06-15T02:30:36.592Z,0.00
2018-06-15T02:31:36.767Z,0.00
2018-06-15T02:32:36.912Z,0.00
2018-06-15T02:33:37.084Z,0.00
2018-06-15T02:34:37.251Z,0.00
2018-06-15T02:35:37.418Z,0.00
2018-06-15T02:36:37.585Z,0.00
2018-06-15T02:37:37.750Z,0.00
2018-06-15T02:38:37.895Z,0.00
2018-06-15T02:39:38.074Z,0.00
2018-06-15T02:40:38.249Z,0.00
2018-06-15T02:41:38.422Z,0.00
2018-06-15T02:42:38.610Z,0.00
2018-06-15T02:43:38.731Z,0.00
2018-06-15T02:44:38.895Z,0.00
2018-06-15T02:54:39.608Z,0.00
2018-06-15T02:55:39.775Z,0.00
2018-06-15T02:56:39.947Z,0.00
2018-06-15T02:57:40.112Z,0.00
2018-06-15T02:58:40.285Z,0.00
2018-06-15T02:59:40.460Z,0.00
2018-06-15T03:00:40.614Z,0.00
2018-06-15T03:01:40.783Z,0.00
2018-06-15T03:02:40.951Z,0.00
2018-06-15T03:03:41.120Z,0.00
2018-06-15T03:04:41.289Z,0.00
2018-06-15T03:05:41.459Z,0.00
2018-06-15T03:06:41.625Z,0.00
2018-06-15T03:07:41.806Z,0.00
2018-06-15T03:08:41.955Z,0.00
2018-06-15T03:11:24.515Z,0.00
2018-06-15T03:12:24.678Z,0.00
2018-06-15T03:13:24.871Z,0.00
2018-06-15T03:14:25.065Z,0.00
2018-06-15T03:15:25.138Z,0.00
2018-06-15T03:16:25.307Z,0.00
2018-06-15T03:17:25.475Z,0.00
2018-06-15T03:18:25.636Z,0.00
2018-06-15T03:19:25.793Z,0.00
2018-06-15T03:20:25.964Z,0.00
2018-06-15T03:21:26.132Z,0.00
2018-06-15T03:22:26.287Z,0.00
2018-06-15T03:23:26.489Z,0.00
2018-06-15T03:24:26.652Z,0.00
2018-06-15T03:25:26.818Z,0.00
2018-06-15T03:27:59.096Z,0.00
2018-06-15T03:28:59.262Z,0.00
2018-06-15T03:29:59.427Z,0.00
2018-06-15T03:30:59.590Z,0.00
2018-06-15T03:31:59.769Z,0.00
2018-06-15T03:32:59.912Z,0.00
2018-06-15T03:34:00.106Z,0.00
2018-06-15T03:35:00.272Z,0.00
2018-06-15T03:36:00.454Z,0.00
2018-06-15T03:37:00.639Z,0.00
2018-06-15T03:38:00.788Z,0.00
2018-06-15T03:39:00.962Z,0.00
2018-06-15T03:40:01.131Z,0.00
2018-06-15T03:41:01.296Z,0.00
2018-06-15T03:42:01.450Z,0.00
2018-06-15T03:44:33.737Z,0.00
2018-06-15T03:45:33.907Z,0.00
2018-06-15T03:46:34.076Z,0.00
2018-06-15T03:47:34.246Z,0.00
2018-06-15T03:48:34.412Z,0.00
2018-06-15T03:49:34.582Z,0.00
2018-06-15T03:50:34.750Z,0.00
2018-06-15T03:51:42.559Z,0.00
2018-06-15T03:52:35.131Z,0.00
2018-06-15T03:53:35.292Z,0.00
2018-06-15T03:54:35.457Z,0.00
2018-06-15T03:55:35.620Z,0.00
2018-06-15T03:56:35.788Z,0.00
2018-06-15T03:57:35.940Z,0.00
2018-06-15T03:58:36.130Z,0.00
2018-06-15T03:59:36.292Z,0.00
2018-06-15T04:00:36.459Z,0.00
2018-06-15T04:01:37.198Z,5.63
2018-06-15T04:04:18.919Z,5.63
2018-06-15T04:05:19.093Z,5.63
2018-06-15T04:06:19.249Z,5.63
2018-06-15T04:07:19.416Z,5.63
2018-06-15T04:08:19.585Z,5.63
2018-06-15T04:09:19.745Z,5.63
2018-06-15T04:10:19.939Z,5.63
2018-06-15T04:11:20.120Z,5.63
2018-06-15T04:12:20.288Z,5.63
2018-06-15T04:13:20.448Z,5.63
2018-06-15T04:14:20.613Z,5.63
2018-06-15T04:15:20.782Z,5.63
2018-06-15T04:16:20.947Z,5.63
2018-06-15T04:17:21.113Z,5.63
2018-06-15T04:18:21.276Z,5.63
2018-06-15T04:21:03.848Z,5.63
2018-06-15T04:22:04.019Z,5.63
2018-06-15T04:23:04.183Z,5.63
2018-06-15T04:24:04.361Z,5.63
2018-06-15T04:25:04.521Z,5.63
2018-06-15T04:26:04.690Z,5.63
2018-06-15T04:27:04.856Z,5.63
2018-06-15T04:28:05.022Z,5.63
2018-06-15T04:29:05.190Z,5.63
2018-06-15T04:30:05.357Z,5.63
2018-06-15T04:31:05.527Z,5.63
2018-06-15T04:32:05.695Z,5.63
2018-06-15T04:33:05.863Z,5.63
2018-06-15T04:34:06.027Z,5.63
2018-06-15T04:35:06.233Z,5.63
2018-06-15T04:37:48.497Z,5.63
2018-06-15T04:38:48.654Z,5.63
2018-06-15T04:39:48.821Z,5.63
2018-06-15T04:40:48.991Z,5.63
2018-06-15T04:41:49.162Z,5.63
2018-06-15T04:42:49.330Z,5.63
2018-06-15T04:43:49.512Z,5.63
2018-06-15T04:44:49.663Z,5.63
2018-06-15T04:45:49.828Z,5.63
2018-06-15T04:46:49.994Z,11.25
2018-06-15T04:52:40.626Z,11.25
2018-06-15T04:53:40.792Z,16.88
2018-06-15T04:54:40.955Z,16.88
2018-06-15T04:55:48.327Z,16.88
2018-06-15T04:56:41.221Z,16.88
2018-06-15T04:57:41.394Z,16.88
2018-06-15T04:58:41.547Z,16.88
2018-06-15T04:59:41.727Z,16.88
2018-06-15T05:00:53.361Z,16.88
2018-06-15T05:01:42.020Z,16.88
2018-06-15T05:02:42.181Z,16.88
2018-06-15T05:03:42.348Z,22.50
2018-06-15T05:04:49.726Z,22.50
2018-06-15T05:05:42.621Z,22.50
2018-06-15T05:06:42.807Z,22.50
2018-06-15T05:07:42.969Z,22.50
2018-06-15T05:08:43.141Z,22.50
2018-06-15T05:09:43.308Z,22.50
2018-06-15T05:10:43.470Z,22.50
2018-06-15T05:11:43.640Z,22.50
2018-06-15T05:12:43.807Z,22.50
2018-06-15T05:13:43.975Z,22.50
2018-06-15T05:14:44.141Z,28.13
2018-06-15T05:15:44.342Z,28.13
2018-06-15T05:16:53.947Z,28.13
2018-06-15T05:17:44.655Z,28.13
2018-06-15T05:18:44.792Z,28.13
2018-06-15T05:19:45.657Z,28.13
2018-06-15T05:20:45.067Z,33.75
2018-06-15T05:21:45.235Z,28.13
2018-06-15T05:22:45.401Z,33.75
2018-06-15T05:23:45.570Z,33.75
2018-06-15T05:24:45.754Z,33.75
2018-06-15T05:25:46.632Z,33.75
2018-06-15T05:26:46.024Z,39.38
2018-06-15T05:27:46.185Z,39.38
2018-06-15T05:28:47.103Z,33.75
2018-06-15T05:29:46.548Z,39.38
2018-06-15T05:30:46.719Z,39.38
2018-06-15T05:31:46.885Z,39.38
2018-06-15T05:34:19.178Z,39.38
2018-06-15T05:35:19.391Z,39.38
2018-06-15T05:36:19.517Z,39.38
2018-06-15T05:37:19.685Z,33.75
2018-06-15T05:38:19.857Z,33.75
2018-06-15T05:39:20.019Z,33.75
2018-06-15T05:40:20.195Z,33.75
2018-06-15T05:41:20.366Z,33.75
2018-06-15T05:42:20.538Z,33.75
2018-06-15T05:43:20.707Z,33.75
2018-06-15T05:44:20.869Z,33.75
2018-06-15T05:45:28.716Z,33.75
2018-06-15T05:46:21.249Z,33.75
2018-06-15T05:47:21.420Z,33.75
2018-06-15T05:48:22.221Z,33.75
2018-06-15T05:49:21.762Z,33.75
2018-06-15T05:50:21.927Z,33.75
2018-06-15T05:51:22.098Z,39.38
2018-06-15T05:52:22.268Z,39.38
2018-06-15T05:53:22.433Z,39.38
2018-06-15T05:54:22.599Z,39.38
2018-06-15T05:55:23.646Z,39.38
2018-06-15T05:56:30.937Z,39.38
2018-06-15T05:57:23.095Z,39.38
2018-06-15T05:58:23.278Z,39.38
2018-06-15T05:59:23.485Z,33.75
2018-06-15T06:00:23.671Z,33.75
2018-06-15T06:01:23.820Z,33.75
2018-06-15T06:02:23.967Z,33.75
2018-06-15T06:03:24.176Z,33.75
2018-06-15T06:04:24.387Z,33.75
2018-06-15T06:05:32.005Z,39.38
2018-06-15T06:06:24.662Z,39.38
2018-06-15T06:07:24.830Z,39.38
2018-06-15T06:08:24.997Z,39.38
2018-06-15T06:09:25.188Z,39.38
2018-06-15T06:10:25.353Z,39.38
2018-06-15T06:11:25.516Z,39.38
2018-06-15T06:12:25.682Z,39.38
2018-06-15T06:13:25.848Z,39.38
2018-06-15T06:14:26.021Z,39.38
2018-06-15T06:15:26.185Z,39.38
2018-06-15T06:16:26.352Z,39.38
2018-06-15T06:17:26.519Z,39.38
2018-06-15T06:18:26.726Z,39.38
2018-06-15T06:19:26.896Z,39.38
2018-06-15T06:22:09.517Z,39.38
2018-06-15T06:23:17.778Z,39.38
2018-06-15T06:24:09.694Z,39.38
2018-06-15T06:25:09.892Z,39.38
2018-06-15T06:27:41.561Z,39.38
2018-06-15T06:28:41.734Z,39.38
2018-06-15T06:29:42.052Z,39.38
2018-06-15T06:30:49.750Z,39.38
2018-06-15T06:31:42.287Z,39.38
2018-06-15T06:32:42.545Z,39.38
2018-06-15T06:33:42.711Z,39.38
2018-06-15T06:34:42.881Z,33.75
2018-06-15T06:35:43.046Z,33.75
2018-06-15T06:36:43.222Z,33.75
2018-06-15T06:37:43.381Z,33.75
2018-06-15T06:38:43.548Z,33.75
2018-06-15T06:39:43.724Z,33.75
2018-06-15T06:40:44.541Z,33.75
2018-06-15T06:41:53.642Z,28.13
2018-06-15T06:42:44.182Z,28.13
2018-06-15T06:43:44.365Z,28.13
2018-06-15T06:44:44.516Z,28.13
2018-06-15T06:45:44.685Z,28.13
2018-06-15T06:46:45.653Z,28.13
2018-06-15T06:47:45.143Z,28.13
2018-06-15T06:48:45.184Z,28.13
2018-06-15T06:49:45.357Z,28.13
2018-06-15T06:50:53.009Z,28.13
2018-06-15T06:51:45.667Z,28.13
2018-06-15T06:52:45.835Z,28.13
2018-06-15T06:53:46.040Z,28.13
2018-06-15T06:54:46.233Z,22.50
2018-06-15T06:55:46.421Z,22.50
2018-06-15T06:56:46.579Z,22.50
2018-06-15T06:57:46.746Z,22.50
2018-06-15T06:58:46.915Z,22.50
2018-06-15T06:59:47.084Z,22.50
2018-06-15T07:00:47.250Z,22.50
2018-06-15T07:01:47.424Z,22.50
2018-06-15T07:02:47.588Z,22.50
2018-06-15T07:03:47.757Z,22.50
2018-06-15T07:04:47.942Z,22.50
2018-06-15T07:07:30.209Z,22.50
2018-06-15T07:08:30.408Z,22.50
2018-06-15T07:09:37.794Z,22.50
2018-06-15T07:10:30.745Z,22.50
2018-06-15T07:11:38.199Z,22.50
2018-06-15T07:12:31.080Z,28.13
2018-06-15T07:13:31.253Z,28.13
2018-06-15T07:14:34.268Z,28.13
2018-06-15T07:15:31.569Z,28.13
2018-06-15T07:16:31.845Z,28.13
2018-06-15T07:17:31.938Z,28.13
2018-06-15T07:18:32.129Z,33.75
2018-06-15T07:19:32.316Z,33.75
2018-06-15T07:20:32.480Z,33.75
2018-06-15T07:21:32.662Z,33.75
2018-06-15T07:22:33.762Z,39.38
2018-06-15T07:23:33.103Z,39.38
2018-06-15T07:24:33.262Z,39.38
2018-06-15T07:25:33.426Z,39.38
2018-06-15T07:28:16.013Z,39.38
2018-06-15T07:29:16.183Z,45.00
2018-06-15T07:30:16.358Z,39.38
2018-06-15T07:31:26.772Z,45.00
2018-06-15T07:32:16.738Z,45.00
2018-06-15T07:33:16.790Z,45.00
2018-06-15T07:34:16.979Z,45.00
2018-06-15T07:35:17.188Z,45.00
2018-06-15T07:36:18.297Z,45.00
2018-06-15T07:37:24.713Z,45.00
2018-06-15T07:38:17.621Z,45.00
2018-06-15T07:39:17.815Z,45.00
2018-06-15T07:40:17.980Z,45.00
2018-06-15T07:41:18.149Z,50.63
2018-06-15T07:42:18.315Z,45.00
2018-06-15T07:43:18.474Z,50.63
2018-06-15T07:44:18.663Z,50.63
2018-06-15T07:45:18.839Z,45.00
2018-06-15T07:46:19.017Z,45.00
2018-06-15T07:47:19.176Z,45.00
2018-06-15T07:50:02.463Z,45.00
2018-06-15T07:51:02.642Z,39.38
2018-06-15T07:52:02.817Z,39.38
2018-06-15T07:53:02.991Z,39.38
2018-06-15T07:54:03.191Z,39.38
2018-06-15T07:55:03.366Z,39.38
2018-06-15T07:56:03.534Z,33.75
2018-06-15T07:57:03.723Z,33.75
2018-06-15T07:58:03.887Z,33.75
2018-06-15T07:59:04.174Z,33.75
2018-06-15T08:00:04.258Z,33.75
2018-06-15T08:01:04.475Z,33.75
2018-06-15T08:02:04.637Z,33.75
2018-06-15T08:03:04.807Z,33.75
2018-06-15T08:04:04.972Z,33.75
2018-06-15T08:06:37.610Z,28.13
2018-06-15T08:07:37.652Z,28.13
2018-06-15T08:08:37.858Z,28.13
2018-06-15T08:09:38.044Z,28.13
2018-06-15T08:10:38.220Z,28.13
2018-06-15T08:11:40.270Z,28.13
2018-06-15T08:12:38.587Z,28.13
2018-06-15T08:13:38.770Z,28.13
2018-06-15T08:14:38.971Z,28.13
2018-06-15T08:15:39.140Z,28.13
2018-06-15T08:16:39.337Z,28.13
2018-06-15T08:17:39.538Z,28.13
2018-06-15T08:18:39.704Z,28.13
2018-06-15T08:19:40.829Z,22.50
2018-06-15T08:20:39.997Z,22.50
2018-06-15T08:23:22.740Z,22.50
2018-06-15T08:24:22.737Z,22.50
2018-06-15T08:25:23.711Z,22.50
2018-06-15T08:26:23.072Z,22.50
2018-06-15T08:27:23.136Z,22.50
2018-06-15T08:28:23.306Z,22.50
2018-06-15T08:29:26.343Z,22.50
2018-06-15T08:30:23.641Z,22.50
2018-06-15T08:31:23.810Z,22.50
2018-06-15T08:32:23.976Z,22.50
2018-06-15T08:33:24.144Z,22.50
2018-06-15T08:34:24.318Z,22.50
2018-06-15T08:35:25.303Z,16.88
2018-06-15T08:36:24.595Z,16.88
2018-06-15T08:37:24.792Z,16.88
2018-06-15T08:40:08.059Z,16.88
2018-06-15T08:41:07.482Z,16.88
2018-06-15T08:42:07.684Z,16.88
2018-06-15T08:43:07.852Z,16.88
2018-06-15T08:44:08.576Z,22.50
2018-06-15T08:45:08.267Z,22.50
2018-06-15T08:46:08.442Z,22.50
2018-06-15T08:47:08.612Z,22.50
2018-06-15T08:48:08.773Z,22.50
2018-06-15T08:49:08.958Z,28.13
2018-06-15T08:51:51.627Z,28.13
2018-06-15T08:52:51.796Z,28.13
2018-06-15T08:53:51.924Z,28.13
2018-06-15T08:55:01.061Z,28.13
2018-06-15T08:55:52.243Z,33.75
2018-06-15T08:56:52.432Z,33.75
2018-06-15T08:58:00.071Z,33.75
2018-06-15T08:58:52.709Z,33.75
2018-06-15T08:59:52.897Z,33.75
2018-06-15T09:00:53.067Z,39.38
2018-06-15T09:01:53.282Z,39.38
2018-06-15T09:02:53.400Z,39.38
2018-06-15T09:03:53.561Z,39.38
2018-06-15T09:04:53.858Z,39.38
2018-06-15T09:05:53.933Z,39.38
2018-06-15T09:06:54.098Z,39.38
2018-06-15T09:07:54.275Z,39.38
2018-06-15T09:08:54.441Z,39.38
2018-06-15T09:09:54.610Z,39.38
2018-06-15T09:10:54.764Z,39.38
2018-06-15T09:11:54.974Z,39.38
2018-06-15T09:14:37.472Z,39.38
2018-06-15T09:15:37.672Z,39.38
2018-06-15T09:16:37.871Z,39.38
2018-06-15T09:17:46.200Z,39.38
2018-06-15T09:18:38.150Z,39.38
2018-06-15T09:19:38.304Z,39.38
2018-06-15T09:20:46.028Z,39.38
2018-06-15T09:21:38.651Z,39.38
2018-06-15T09:22:38.751Z,39.38
2018-06-15T09:23:46.464Z,39.38
2018-06-15T09:24:39.041Z,39.38
2018-06-15T09:25:39.209Z,39.38
2018-06-15T09:26:39.381Z,39.38
2018-06-15T09:27:39.538Z,39.38
2018-06-15T09:28:39.717Z,39.38
2018-06-15T09:29:39.872Z,39.38
2018-06-15T09:30:40.092Z,39.38
2018-06-15T09:31:47.425Z,39.38
2018-06-15T09:32:40.541Z,39.38
2018-06-15T09:33:40.648Z,39.38
2018-06-15T09:34:40.837Z,39.38
2018-06-15T09:35:41.004Z,39.38
2018-06-15T09:36:41.171Z,39.38
2018-06-15T09:37:41.339Z,45.00
2018-06-15T09:38:41.578Z,45.00
2018-06-15T09:39:41.736Z,45.00
2018-06-15T09:40:49.448Z,45.00
2018-06-15T09:41:42.129Z,45.00
2018-06-15T09:42:43.267Z,50.63
2018-06-15T09:43:42.435Z,50.63
2018-06-15T09:44:42.600Z,50.63
2018-06-15T09:45:43.068Z,50.63
2018-06-15T09:46:42.921Z,56.25
2018-06-15T09:47:43.073Z,56.25
2018-06-15T09:48:43.229Z,56.25
2018-06-15T09:49:43.415Z,61.88
2018-06-15T09:50:43.572Z,61.88
2018-06-15T09:51:43.762Z,61.88
2018-06-15T09:52:43.896Z,67.50
2018-06-15T09:53:44.064Z,67.50
2018-06-15T09:54:44.277Z,73.13
2018-06-15T09:57:17.040Z,73.13
2018-06-15T09:58:16.698Z,78.75
2018-06-15T09:59:24.196Z,73.13
2018-06-15T10:00:17.232Z,73.13
2018-06-15T10:01:17.267Z,78.75
2018-06-15T10:02:17.487Z,78.75
2018-06-15T10:03:17.535Z,78.75
2018-06-15T10:04:17.701Z,84.38
2018-06-15T10:05:17.933Z,90.00
2018-06-15T10:06:18.099Z,90.00
2018-06-15T10:07:18.260Z,90.00
2018-06-15T10:08:18.428Z,90.00
2018-06-15T10:09:18.598Z,90.00
2018-06-15T10:10:18.776Z,95.63
2018-06-15T10:11:18.937Z,95.63
2018-06-15T10:12:19.106Z,95.63
2018-06-15T10:13:19.276Z,95.63
2018-06-15T10:17:08.144Z,95.63
2018-06-15T10:18:00.058Z,95.63
2018-06-15T10:19:00.256Z,95.63
2018-06-15T10:20:00.451Z,95.63
2018-06-15T10:21:01.172Z,95.63
2018-06-15T10:22:01.605Z,95.63
2018-06-15T10:23:00.902Z,95.63
2018-06-15T10:24:08.526Z,95.63
2018-06-15T10:25:01.185Z,95.63
2018-06-15T10:26:01.353Z,95.63
2018-06-15T10:27:02.142Z,95.63
2018-06-15T10:28:01.701Z,95.63
2018-06-15T10:29:01.860Z,101.25
2018-06-15T10:30:02.028Z,106.88
2018-06-15T10:31:02.236Z,112.50
2018-06-15T10:32:02.403Z,112.50
2018-06-15T10:33:02.627Z,118.13
2018-06-15T10:34:03.570Z,118.13
2018-06-15T10:35:02.931Z,112.50
2018-06-15T10:36:03.087Z,112.50
2018-06-15T10:37:03.280Z,118.13
2018-06-15T10:38:03.436Z,118.13
2018-06-15T10:42:24.046Z,129.38
2018-06-15T10:43:24.230Z,135.00
2018-06-15T10:44:31.842Z,129.38
2018-06-15T10:45:24.504Z,129.38
2018-06-15T10:46:24.675Z,129.38
2018-06-15T10:47:24.857Z,129.38
2018-06-15T10:48:33.344Z,123.75
2018-06-15T10:49:25.137Z,123.75
2018-06-15T10:50:25.296Z,123.75
2018-06-15T10:51:25.470Z,123.75
2018-06-15T10:52:25.630Z,123.75
2018-06-15T10:53:25.806Z,118.13
2018-06-15T10:54:25.978Z,123.75
2018-06-15T10:55:26.161Z,135.00
2018-06-15T10:56:26.402Z,123.75
2018-06-15T10:57:26.584Z,123.75
2018-06-15T10:58:27.792Z,118.13
2018-06-15T10:59:26.981Z,112.50
2018-06-15T11:00:27.160Z,112.50
2018-06-15T11:01:27.320Z,123.75
2018-06-15T11:02:27.564Z,129.38
2018-06-15T11:03:27.671Z,129.38
2018-06-15T11:06:10.940Z,168.75
2018-06-15T11:07:11.108Z,151.88
2018-06-15T11:08:11.327Z,157.50
2018-06-15T11:09:11.466Z,129.38
2018-06-15T11:10:14.480Z,135.00
2018-06-15T11:11:18.972Z,151.88
2018-06-15T11:12:11.891Z,163.13
2018-06-15T11:13:12.060Z,163.13
2018-06-15T11:14:12.276Z,163.13
2018-06-15T11:15:14.004Z,157.50
2018-06-15T11:16:12.697Z,157.50
2018-06-15T11:17:12.867Z,157.50
2018-06-15T11:18:13.070Z,151.88
2018-06-15T11:19:24.118Z,151.88
2018-06-15T11:20:13.428Z,151.88
2018-06-15T11:21:13.621Z,140.63
2018-06-15T11:22:13.870Z,146.25
2018-06-15T11:23:13.887Z,84.38
2018-06-15T11:24:15.031Z,84.38
2018-06-15T11:25:14.222Z,90.00
2018-06-15T11:26:14.699Z,84.38
2018-06-15T11:27:14.492Z,84.38
2018-06-15T11:28:14.827Z,84.38
2018-06-15T11:29:15.250Z,84.38
2018-06-15T11:30:15.004Z,78.75
2018-06-15T11:31:15.178Z,84.38
2018-06-15T11:32:15.356Z,84.38
2018-06-15T11:33:15.508Z,84.38
2018-06-15T11:34:23.625Z,90.00
2018-06-15T11:35:15.799Z,90.00
2018-06-15T11:36:16.018Z,84.38
2018-06-15T11:37:16.194Z,84.38
2018-06-15T11:38:18.043Z,84.38
2018-06-15T11:39:16.969Z,84.38
2018-06-15T11:40:17.054Z,84.38
2018-06-15T11:41:17.104Z,78.75
2018-06-15T11:42:19.035Z,78.75
2018-06-15T11:43:17.385Z,78.75
2018-06-15T11:44:17.556Z,78.75
2018-06-15T11:46:51.189Z,78.75
2018-06-15T11:47:51.357Z,78.75
2018-06-15T11:48:52.364Z,73.13
2018-06-15T11:49:51.659Z,67.50
2018-06-15T11:50:51.828Z,67.50
2018-06-15T11:51:54.868Z,61.88
2018-06-15T11:52:52.159Z,61.88
2018-06-15T11:53:52.322Z,56.25
2018-06-15T11:54:52.480Z,56.25
2018-06-15T11:55:53.389Z,56.25
2018-06-15T11:57:00.792Z,56.25
2018-06-15T11:57:52.944Z,56.25
2018-06-15T11:58:53.128Z,56.25
2018-06-15T11:59:53.305Z,56.25
2018-06-15T12:00:53.464Z,56.25
2018-06-15T12:01:53.714Z,56.25
2018-06-15T12:03:01.791Z,50.63
2018-06-15T12:03:53.952Z,50.63
2018-06-15T12:04:54.156Z,50.63
2018-06-15T12:05:54.330Z,50.63
2018-06-15T12:06:54.541Z,50.63
2018-06-15T12:07:54.763Z,50.63
2018-06-15T12:08:54.899Z,50.63
2018-06-15T12:09:55.087Z,50.63
2018-06-15T12:10:55.264Z,50.63
2018-06-15T12:11:55.538Z,50.63
2018-06-15T12:12:55.603Z,50.63
2018-06-15T12:15:39.226Z,56.25
2018-06-15T12:16:39.438Z,56.25
2018-06-15T12:17:39.591Z,56.25
2018-06-15T12:18:39.746Z,56.25
2018-06-15T12:19:39.948Z,56.25
2018-06-15T12:20:40.916Z,56.25
2018-06-15T12:21:40.335Z,56.25
2018-06-15T12:22:40.510Z,56.25
2018-06-15T12:23:40.728Z,61.88
2018-06-15T12:24:40.819Z,61.88
2018-06-15T12:25:41.135Z,61.88
2018-06-15T12:26:41.158Z,56.25
2018-06-15T12:27:41.915Z,61.88
2018-06-15T12:28:49.467Z,61.88
2018-06-15T12:29:41.620Z,61.88
2018-06-15T12:30:41.755Z,61.88
2018-06-15T12:31:42.445Z,61.88
2018-06-15T12:32:42.269Z,61.88
2018-06-15T12:33:42.934Z,67.50
2018-06-15T12:34:42.489Z,67.50
2018-06-15T12:35:42.652Z,67.50
2018-06-15T12:36:44.449Z,67.50
2018-06-15T12:37:42.981Z,67.50
2018-06-15T12:38:43.857Z,67.50
2018-06-15T12:39:43.325Z,67.50
2018-06-15T12:40:43.495Z,67.50
2018-06-15T12:41:43.682Z,67.50
2018-06-15T12:42:43.858Z,73.13
2018-06-15T12:43:51.971Z,78.75
2018-06-15T12:44:44.151Z,78.75
2018-06-15T12:45:44.327Z,78.75
2018-06-15T12:46:44.478Z,78.75
2018-06-15T12:47:44.650Z,78.75
2018-06-15T12:48:44.824Z,84.38
2018-06-15T12:49:44.994Z,90.00
2018-06-15T12:50:45.191Z,84.38
2018-06-15T12:51:52.572Z,78.75
2018-06-15T12:52:45.477Z,106.88
2018-06-15T12:53:45.704Z,90.00
2018-06-15T12:54:45.760Z,90.00
2018-06-15T12:55:45.968Z,90.00
2018-06-15T12:56:46.118Z,95.63
2018-06-15T12:57:46.293Z,112.50
2018-06-15T12:58:46.463Z,146.25
2018-06-15T12:59:46.640Z,101.25
2018-06-15T13:00:46.805Z,84.38
2018-06-15T13:01:46.977Z,84.38
2018-06-15T13:02:47.149Z,129.38
2018-06-15T13:03:47.319Z,146.25
2018-06-15T13:04:47.495Z,112.50
2018-06-15T13:05:47.698Z,84.38
2018-06-15T13:08:30.278Z,73.13
2018-06-15T13:09:30.502Z,73.13
2018-06-15T13:10:30.666Z,73.13
2018-06-15T13:11:30.830Z,67.50
2018-06-15T13:12:31.048Z,67.50
2018-06-15T13:13:31.186Z,61.88
2018-06-15T13:14:31.269Z,61.88
2018-06-15T13:15:31.438Z,67.50
2018-06-15T13:16:31.616Z,67.50
2018-06-15T13:17:39.230Z,61.88
2018-06-15T13:18:31.925Z,61.88
2018-06-15T13:19:32.062Z,56.25
2018-06-15T13:20:34.030Z,56.25
2018-06-15T13:21:33.034Z,56.25
2018-06-15T13:22:32.575Z,56.25
2018-06-15T13:23:35.525Z,56.25
2018-06-15T13:24:34.543Z,56.25
2018-06-15T13:25:33.083Z,56.25
2018-06-15T13:26:33.273Z,56.25
2018-06-15T13:27:34.034Z,56.25
2018-06-15T13:28:35.545Z,56.25
2018-06-15T13:29:33.724Z,56.25
2018-06-15T13:30:34.563Z,56.25
2018-06-15T13:31:44.346Z,61.88
2018-06-15T13:32:34.268Z,61.88
2018-06-15T13:33:35.076Z,67.50
2018-06-15T13:34:42.685Z,67.50
2018-06-15T13:35:34.955Z,67.50
2018-06-15T13:36:35.028Z,67.50
2018-06-15T13:37:35.234Z,73.13
2018-06-15T13:38:35.422Z,67.50
2018-06-15T13:39:35.626Z,67.50
2018-06-15T13:40:35.816Z,67.50
2018-06-15T13:41:35.871Z,78.75
2018-06-15T13:42:36.081Z,90.00
2018-06-15T13:43:36.247Z,129.38
2018-06-15T13:44:36.443Z,123.75
2018-06-15T13:45:37.599Z,84.38
2018-06-15T13:46:38.593Z,73.13
2018-06-15T13:47:36.912Z,67.50
2018-06-15T13:48:37.058Z,118.13
2018-06-15T13:51:09.639Z,123.75
2018-06-15T13:52:09.827Z,123.75
2018-06-15T13:53:09.978Z,129.38
2018-06-15T13:54:10.151Z,123.75
2018-06-15T13:55:10.326Z,123.75
2018-06-15T13:56:10.504Z,106.88
2018-06-15T13:57:10.701Z,123.75
2018-06-15T13:58:10.883Z,123.75
2018-06-15T13:59:11.039Z,129.38
2018-06-15T14:00:11.209Z,112.50
2018-06-15T14:02:43.793Z,123.75
2018-06-15T14:03:43.981Z,118.13
2018-06-15T14:04:44.153Z,95.63
2018-06-15T14:05:46.022Z,78.75
2018-06-15T14:06:44.431Z,106.88
2018-06-15T14:07:44.589Z,106.88
2018-06-15T14:08:44.758Z,129.38
2018-06-15T14:09:44.962Z,135.00
2018-06-15T14:10:45.177Z,129.38
2018-06-15T14:11:45.355Z,129.38
2018-06-15T14:14:17.766Z,135.00
2018-06-15T14:15:25.435Z,129.38
2018-06-15T14:16:18.111Z,129.38
2018-06-15T14:17:18.294Z,123.75
2018-06-15T14:18:18.460Z,123.75
2018-06-15T14:19:18.628Z,129.38
2018-06-15T14:20:18.797Z,90.00